createdAt,value
2022-10-12T00:00:50.491Z,69453.97
2022-10-12T00:03:19.172Z,69422.81
2022-10-12T00:05:47.011Z,69424.28
2022-10-12T00:08:14.415Z,69423.09
2022-10-12T00:10:44.858Z,69440.34
2022-10-12T00:13:12.103Z,69437.19
2022-10-12T00:15:42.249Z,69433.41
2022-10-12T00:18:09.253Z,69427.28
2022-10-12T00:20:36.585Z,69436.91
2022-10-12T00:23:03.614Z,69429.03
2022-10-12T00:25:30.916Z,69434.84
2022-10-12T00:27:57.836Z,69397.56
2022-10-12T00:30:24.809Z,69440.75
2022-10-12T00:32:51.818Z,69426.78
2022-10-12T00:35:18.786Z,69420.97
2022-10-12T00:37:45.736Z,69386.56
2022-10-12T00:40:13.056Z,69404.69
2022-10-12T00:42:40.493Z,69400.56
2022-10-12T00:45:09.914Z,69397.34
2022-10-12T00:47:41.549Z,69434.34
2022-10-12T00:50:11.477Z,69378.41
2022-10-12T00:52:47.101Z,69385.09
2022-10-12T00:55:19.145Z,69418.63
2022-10-12T00:57:49.730Z,69369.69
2022-10-12T01:00:18.903Z,69386.91
2022-10-12T01:02:49.290Z,69387.53
2022-10-12T01:05:18.999Z,69373.25
2022-10-12T01:07:46.251Z,69367.16
2022-10-12T01:10:13.933Z,69364.00
2022-10-12T01:12:44.108Z,69402.41
2022-10-12T01:15:13.571Z,69378.53
2022-10-12T01:18:04.923Z,69396.59
2022-10-12T01:20:59.509Z,69379.69
2022-10-12T01:24:00.401Z,69372.16
2022-10-12T01:27:18.489Z,69353.84
2022-10-12T01:30:25.896Z,69353.56
2022-10-12T01:33:36.668Z,69385.94
2022-10-12T01:36:33.718Z,69330.06
2022-10-12T01:39:18.173Z,69311.44
2022-10-12T01:41:50.457Z,69318.09
2022-10-12T01:44:22.405Z,69341.69
2022-10-12T01:46:50.290Z,69299.47
2022-10-12T01:49:23.572Z,69342.56
2022-10-12T01:51:59.851Z,69330.03
2022-10-12T01:55:36.909Z,69339.97
2022-10-12T01:58:33.681Z,69318.13
2022-10-12T02:01:34.042Z,69375.25
2022-10-12T02:04:03.736Z,69319.88
2022-10-12T02:06:46.223Z,69315.22
2022-10-12T02:09:28.160Z,69285.59
2022-10-12T02:12:04.083Z,69335.91
2022-10-12T02:15:04.194Z,69333.03
2022-10-12T02:17:35.587Z,69258.94
2022-10-12T02:20:04.262Z,69271.44
2022-10-12T02:22:36.902Z,69275.22
2022-10-12T02:25:11.143Z,69287.13
2022-10-12T02:27:45.643Z,69271.72
2022-10-12T02:30:13.396Z,69235.13
2022-10-12T02:33:03.669Z,69243.28
2022-10-12T02:35:52.469Z,69263.66
2022-10-12T02:38:52.651Z,69258.72
2022-10-12T02:41:36.483Z,69257.84
2022-10-12T02:44:10.552Z,69302.59
2022-10-12T02:46:41.334Z,69235.72
2022-10-12T02:49:11.046Z,69231.66
2022-10-12T02:51:41.073Z,69245.63
2022-10-12T02:54:08.669Z,69260.78
2022-10-12T02:56:42.001Z,69250.34
2022-10-12T02:59:09.388Z,69239.88
2022-10-12T03:01:36.883Z,69240.44
2022-10-12T03:04:04.494Z,69217.75
2022-10-12T03:06:31.873Z,69221.84
2022-10-12T03:08:58.873Z,69202.63
2022-10-12T03:11:25.824Z,69214.22
2022-10-12T03:13:54.691Z,69269.78
2022-10-12T03:16:22.766Z,69215.41
2022-10-12T03:18:50.790Z,69236.06
2022-10-12T03:21:18.014Z,69211.66
2022-10-12T03:23:45.413Z,69274.75
2022-10-12T03:26:12.482Z,69241.31
2022-10-12T03:28:39.488Z,69253.88
2022-10-12T03:31:06.507Z,69211.69
2022-10-12T03:33:33.499Z,69191.44
2022-10-12T03:36:00.478Z,69203.84
2022-10-12T03:38:27.460Z,69235.25
2022-10-12T03:40:54.501Z,69231.47
2022-10-12T03:43:21.512Z,69230.00
2022-10-12T03:45:48.499Z,69213.13
2022-10-12T03:48:15.676Z,69251.53
2022-10-12T03:50:42.690Z,69216.59
2022-10-12T03:53:10.098Z,69253.25
2022-10-12T03:55:37.057Z,69244.84
2022-10-12T03:58:04.060Z,69194.06
2022-10-12T04:00:31.257Z,69219.06
2022-10-12T04:02:58.375Z,69188.78
2022-10-12T04:05:25.487Z,69194.88
2022-10-12T04:07:52.709Z,69219.56
2022-10-12T04:10:20.307Z,69205.38
2022-10-12T04:12:47.377Z,69217.03
2022-10-12T04:15:14.777Z,69232.66
2022-10-12T04:17:42.084Z,69188.78
2022-10-12T04:20:11.643Z,69224.53
2022-10-12T04:22:39.713Z,69210.28
2022-10-12T04:25:07.163Z,69239.38
2022-10-12T04:27:34.397Z,69198.38
2022-10-12T04:30:01.364Z,69201.34
2022-10-12T04:32:28.256Z,69231.81
2022-10-12T04:34:55.195Z,69225.44
2022-10-12T04:37:22.167Z,69225.47
2022-10-12T04:39:49.112Z,69156.94
2022-10-12T04:42:15.997Z,69184.78
2022-10-12T04:44:43.025Z,69158.22
2022-10-12T04:47:10.459Z,69196.69
2022-10-12T04:49:37.840Z,69183.63
2022-10-12T04:52:05.202Z,69177.81
2022-10-12T04:54:32.872Z,69174.03
2022-10-12T04:57:00.209Z,69116.22
2022-10-12T04:59:27.797Z,69176.66
2022-10-12T05:01:54.892Z,69145.31
2022-10-12T05:04:21.918Z,69118.06
2022-10-12T05:06:48.824Z,69145.34
2022-10-12T05:09:17.172Z,69202.25
2022-10-12T05:11:44.513Z,69197.03
2022-10-12T05:14:11.797Z,69139.53
2022-10-12T05:16:38.736Z,69150.81
2022-10-12T05:19:05.695Z,69181.03
2022-10-12T05:21:33.591Z,69179.59
2022-10-12T05:24:00.510Z,69186.00
2022-10-12T05:26:27.678Z,69162.47
2022-10-12T05:28:54.848Z,69144.72
2022-10-12T05:31:21.814Z,69188.03
2022-10-12T05:33:48.794Z,69172.09
2022-10-12T05:36:15.832Z,69176.72
2022-10-12T05:38:42.805Z,69166.53
2022-10-12T05:41:09.877Z,69172.34
2022-10-12T05:43:36.802Z,69163.03
2022-10-12T05:46:04.594Z,69140.69
2022-10-12T05:48:33.159Z,69151.09
2022-10-12T05:51:00.148Z,69203.97
2022-10-12T05:53:27.715Z,69218.50
2022-10-12T05:56:00.509Z,69206.88
2022-10-12T05:58:30.627Z,69180.72
2022-10-12T06:01:10.242Z,69160.38
2022-10-12T06:03:37.549Z,69174.97
2022-10-12T06:06:06.507Z,69115.75
2022-10-12T06:08:35.004Z,69156.06
2022-10-12T06:11:02.358Z,69181.88
2022-10-12T06:13:29.351Z,69171.13
2022-10-12T06:15:56.651Z,69158.78
2022-10-12T06:18:23.674Z,69178.81
2022-10-12T06:21:08.743Z,69209.22
2022-10-12T06:23:40.964Z,69264.44
2022-10-12T06:26:07.943Z,69217.88
2022-10-12T06:28:35.101Z,69187.06
2022-10-12T06:31:02.119Z,69185.94
2022-10-12T06:33:29.251Z,69194.94
2022-10-12T06:35:57.013Z,69289.94
2022-10-12T06:38:25.108Z,69220.69
2022-10-12T06:40:53.554Z,69237.25
2022-10-12T06:43:22.815Z,69294.50
2022-10-12T06:45:50.421Z,69238.09
2022-10-12T06:48:18.748Z,69268.91
2022-10-12T06:50:47.876Z,69261.59
2022-10-12T06:53:14.878Z,69225.28
2022-10-12T06:55:41.984Z,69277.00
2022-10-12T06:58:09.057Z,69261.31
2022-10-12T07:00:36.369Z,69329.34
2022-10-12T07:03:03.702Z,69303.09
2022-10-12T07:05:30.677Z,69306.00
2022-10-12T07:07:58.018Z,69308.88
2022-10-12T07:10:25.410Z,69327.78
2022-10-12T07:12:52.345Z,69349.59
2022-10-12T07:15:19.555Z,69321.31
2022-10-12T07:17:46.500Z,69375.44
2022-10-12T07:20:13.986Z,69359.97
2022-10-12T07:22:40.880Z,69323.25
2022-10-12T07:25:08.633Z,69348.22
2022-10-12T07:27:35.772Z,69365.69
2022-10-12T07:30:03.987Z,69370.06
2022-10-12T07:32:30.900Z,69383.94
2022-10-12T07:34:57.831Z,69418.59
2022-10-12T07:37:25.087Z,69467.81
2022-10-12T07:39:57.075Z,69486.13
2022-10-12T07:42:25.392Z,69472.63
2022-10-12T07:44:52.527Z,69507.00
2022-10-12T07:47:19.655Z,69497.63
2022-10-12T07:49:46.557Z,69505.56
2022-10-12T07:52:13.555Z,69502.56
2022-10-12T07:54:40.478Z,69549.50
2022-10-12T07:57:08.460Z,69488.91
2022-10-12T07:59:35.389Z,69526.41
2022-10-12T08:02:02.388Z,69541.25
2022-10-12T08:04:29.398Z,69543.81
2022-10-12T08:06:57.939Z,69580.53
2022-10-12T08:09:24.877Z,69586.59
2022-10-12T08:11:51.784Z,69586.50
2022-10-12T08:14:18.736Z,69591.22
2022-10-12T08:16:45.780Z,69640.50
2022-10-12T08:19:13.678Z,69633.75
2022-10-12T08:21:42.570Z,69642.75
2022-10-12T08:24:11.352Z,69655.84
2022-10-12T08:26:39.047Z,69687.63
2022-10-12T08:29:08.129Z,69679.72
2022-10-12T08:31:35.951Z,69710.03
2022-10-12T08:34:04.240Z,69728.16
2022-10-12T08:36:31.259Z,69721.66
2022-10-12T08:38:58.464Z,69740.53
2022-10-12T08:42:12.798Z,69754.84
2022-10-12T08:45:19.889Z,69805.97
2022-10-12T08:48:14.388Z,69795.63
2022-10-12T08:50:54.633Z,69842.94
2022-10-12T08:53:37.728Z,69836.16
2022-10-12T08:56:05.110Z,69863.81
2022-10-12T08:58:36.847Z,69859.75
2022-10-12T09:01:26.002Z,69914.69
2022-10-12T09:04:21.142Z,69966.72
2022-10-12T09:07:19.831Z,69960.13
2022-10-12T09:10:20.932Z,69992.56
2022-10-12T09:13:25.761Z,70058.47
2022-10-12T09:15:55.219Z,70066.16
2022-10-12T09:18:40.831Z,70114.47
2022-10-12T09:21:17.307Z,70199.34
2022-10-12T09:23:45.040Z,70303.44
2022-10-12T09:26:19.677Z,70421.00
2022-10-12T09:28:54.547Z,70671.66
2022-10-12T09:32:04.678Z,70924.91
2022-10-12T09:34:32.646Z,71060.13
2022-10-12T09:37:03.417Z,71160.78
2022-10-12T09:39:39.630Z,71286.56
2022-10-12T09:42:06.924Z,71348.69
2022-10-12T09:44:44.757Z,71369.72
2022-10-12T09:47:28.291Z,71491.25
2022-10-12T09:50:04.270Z,71560.19
2022-10-12T09:52:44.806Z,71743.19
2022-10-12T09:55:15.540Z,71774.50
2022-10-12T09:57:54.467Z,71848.00
2022-10-12T10:00:32.228Z,71827.06
2022-10-12T10:03:01.227Z,71914.09
2022-10-12T10:05:37.590Z,72042.72
2022-10-12T10:08:24.282Z,72175.84
2022-10-12T10:10:57.517Z,72218.81
2022-10-12T10:13:31.693Z,72261.72
2022-10-12T10:16:08.850Z,72340.53
2022-10-12T10:18:49.249Z,72441.13
2022-10-12T10:21:36.570Z,72426.69
2022-10-12T10:24:21.713Z,72565.13
2022-10-12T10:27:03.410Z,72432.59
2022-10-12T10:29:37.851Z,72422.84
2022-10-12T10:32:27.225Z,72548.69
2022-10-12T10:35:13.218Z,72302.91
2022-10-12T10:37:45.275Z,72201.94
2022-10-12T10:40:32.210Z,72137.78
2022-10-12T10:43:05.109Z,72336.03
2022-10-12T10:48:24.640Z,72491.75
2022-10-12T10:51:00.985Z,72547.41
2022-10-12T10:53:42.066Z,72657.38
2022-10-12T10:56:24.881Z,72558.25
2022-10-12T10:59:15.576Z,72647.41
2022-10-12T11:01:59.477Z,72627.38
2022-10-12T11:04:45.701Z,72636.75
2022-10-12T11:07:37.398Z,72821.91
2022-10-12T11:10:30.501Z,72901.63
2022-10-12T11:13:25.574Z,72878.16
2022-10-12T11:16:11.602Z,72750.16
2022-10-12T11:18:55.450Z,72783.75
2022-10-12T11:21:39.493Z,72910.00
2022-10-12T11:24:09.619Z,72983.75
2022-10-12T11:26:51.232Z,72755.50
2022-10-12T11:29:18.538Z,72662.31
2022-10-12T11:32:07.725Z,72642.97
2022-10-12T11:35:05.849Z,72729.84
2022-10-12T11:37:47.550Z,72732.59
2022-10-12T11:41:00.256Z,72809.97
2022-10-12T11:43:26.706Z,72796.72
2022-10-12T11:46:02.914Z,72807.34
2022-10-12T11:48:52.741Z,72838.94
2022-10-12T11:51:19.638Z,72512.66
2022-10-12T11:54:18.755Z,72279.41
2022-10-12T11:56:58.680Z,72434.41
2022-10-12T11:59:44.214Z,72623.03
2022-10-12T12:02:26.735Z,72620.59
2022-10-12T12:04:54.747Z,72281.13
2022-10-12T12:07:43.814Z,72305.25
2022-10-12T12:10:44.271Z,72411.09
2022-10-12T12:13:12.695Z,72392.56
2022-10-12T12:16:03.813Z,72178.22
2022-10-12T12:18:52.698Z,71939.03
2022-10-12T12:21:20.139Z,71802.00
2022-10-12T12:23:55.670Z,71679.88
2022-10-12T12:26:28.067Z,71599.22
2022-10-12T12:29:22.039Z,71532.41
2022-10-12T12:31:59.120Z,71456.19
2022-10-12T12:34:27.875Z,71393.38
2022-10-12T12:36:56.457Z,71291.59
2022-10-12T12:39:32.724Z,71225.25
2022-10-12T12:42:09.192Z,71166.00
2022-10-12T12:44:43.045Z,71191.91
2022-10-12T12:50:02.462Z,71164.50
2022-10-12T12:52:40.003Z,71126.13
2022-10-12T12:55:50.673Z,71108.72
2022-10-12T12:58:33.558Z,71048.28
2022-10-12T13:01:36.745Z,71054.00
2022-10-12T13:04:24.720Z,71086.00
2022-10-12T13:07:00.516Z,71107.91
2022-10-12T13:09:38.318Z,71098.78
2022-10-12T13:12:32.399Z,71114.34
2022-10-12T13:15:20.909Z,71138.09
2022-10-12T13:18:48.834Z,71078.16
2022-10-12T13:21:22.747Z,71135.03
2022-10-12T13:24:11.823Z,71074.75
2022-10-12T13:26:41.155Z,71070.63
2022-10-12T13:29:20.120Z,71123.69
2022-10-12T13:31:52.652Z,71099.38
2022-10-12T13:34:26.841Z,71063.44
2022-10-12T13:37:00.380Z,71078.84
2022-10-12T13:39:28.769Z,71072.94
2022-10-12T13:42:01.210Z,71073.56
2022-10-12T13:44:36.452Z,71076.50
2022-10-12T13:47:31.149Z,71062.66
2022-10-12T13:49:58.861Z,71037.63
2022-10-12T13:52:32.548Z,71043.50
2022-10-12T13:55:01.115Z,71013.16
2022-10-12T13:57:46.179Z,71059.53
2022-10-12T14:00:18.628Z,71029.81
2022-10-12T14:03:06.166Z,71003.69
2022-10-12T14:05:42.333Z,71014.63
2022-10-12T14:08:25.237Z,71019.69
2022-10-12T14:10:55.099Z,71066.91
2022-10-12T14:13:34.668Z,71028.63
2022-10-12T14:16:05.012Z,71082.09
2022-10-12T14:18:44.880Z,71044.69
2022-10-12T14:21:26.789Z,71034.41
2022-10-12T14:23:57.797Z,70990.22
2022-10-12T14:26:30.173Z,70968.28
2022-10-12T14:28:59.425Z,70988.53
2022-10-12T14:31:52.894Z,70963.94
2022-10-12T14:34:46.371Z,70975.25
2022-10-12T14:37:16.078Z,70969.00
2022-10-12T14:39:45.596Z,70991.59
2022-10-12T14:42:28.262Z,70990.44
2022-10-12T14:44:55.281Z,70946.56
2022-10-12T14:47:43.020Z,70982.19
2022-10-12T14:50:19.650Z,70947.25
2022-10-12T14:52:49.950Z,70948.72
2022-10-12T14:55:29.571Z,70896.94
2022-10-12T14:57:57.884Z,70932.59
2022-10-12T15:00:31.842Z,70917.84
2022-10-12T15:03:00.028Z,70913.16
2022-10-12T15:05:31.929Z,70885.91
2022-10-12T15:08:00.590Z,70878.91
2022-10-12T15:10:29.164Z,70800.06
2022-10-12T15:12:56.607Z,70900.72
2022-10-12T15:15:44.214Z,70843.59
2022-10-12T15:18:11.680Z,70857.56
2022-10-12T15:20:39.595Z,70841.88
2022-10-12T15:23:06.997Z,70811.81
2022-10-12T15:25:54.966Z,70818.25
2022-10-12T15:28:23.300Z,70798.78
2022-10-12T15:33:39.051Z,70775.25
2022-10-12T15:36:07.039Z,70707.22
2022-10-12T15:38:34.319Z,70760.72
2022-10-12T15:41:01.683Z,70716.69
2022-10-12T15:43:29.144Z,70764.78
2022-10-12T15:45:56.605Z,70732.28
2022-10-12T15:48:23.619Z,70742.69
2022-10-12T15:50:50.725Z,70682.97
2022-10-12T15:53:25.542Z,70698.94
2022-10-12T15:55:56.051Z,70742.72
2022-10-12T15:58:23.457Z,70682.00
2022-10-12T16:00:50.603Z,70663.16
2022-10-12T16:03:25.644Z,70637.75
2022-10-12T16:05:53.883Z,70653.53
2022-10-12T16:08:20.827Z,70644.75
2022-10-12T16:10:48.961Z,70661.31
2022-10-12T16:13:17.353Z,70644.50
2022-10-12T16:15:44.657Z,70625.31
2022-10-12T16:18:12.210Z,70609.22
2022-10-12T16:20:41.358Z,70619.50
2022-10-12T16:23:25.177Z,70602.72
2022-10-12T16:25:53.095Z,70563.75
2022-10-12T16:28:21.246Z,70589.09
2022-10-12T16:30:49.649Z,70598.25
2022-10-12T16:33:17.566Z,70565.47
2022-10-12T16:35:45.040Z,70542.22
2022-10-12T16:38:14.508Z,70522.16
2022-10-12T16:40:42.547Z,70533.91
2022-10-12T16:43:10.355Z,70471.88
2022-10-12T16:45:38.175Z,70465.19
2022-10-12T16:48:05.386Z,70447.84
2022-10-12T16:50:32.373Z,70488.66
2022-10-12T16:53:00.072Z,70450.06
2022-10-12T16:55:27.042Z,70412.63
2022-10-12T16:57:54.372Z,70422.16
2022-10-12T17:00:21.784Z,70424.50
2022-10-12T17:02:48.829Z,70418.69
2022-10-12T17:05:15.902Z,70426.94
2022-10-12T17:07:42.882Z,70430.22
2022-10-12T17:10:10.432Z,70426.75
2022-10-12T17:12:37.385Z,70417.66
2022-10-12T17:15:05.736Z,70366.09
2022-10-12T17:17:32.657Z,70372.69
2022-10-12T17:19:59.615Z,70333.53
2022-10-12T17:22:26.978Z,70340.66
2022-10-12T17:24:53.891Z,70361.63
2022-10-12T17:27:20.936Z,70330.13
2022-10-12T17:29:47.993Z,70297.22
2022-10-12T17:32:15.802Z,70295.19
2022-10-12T17:34:44.822Z,70342.69
2022-10-12T17:37:15.171Z,70313.84
2022-10-12T17:39:46.219Z,70309.22
2022-10-12T17:42:13.814Z,70264.78
2022-10-12T17:44:40.948Z,70285.22
2022-10-12T17:47:07.851Z,70253.38
2022-10-12T17:49:35.240Z,70278.69
2022-10-12T17:52:02.560Z,70228.06
2022-10-12T17:54:29.612Z,70265.84
2022-10-12T17:56:57.312Z,70283.53
2022-10-12T17:59:25.161Z,70238.28
2022-10-12T18:01:52.918Z,70207.06
2022-10-12T18:04:20.356Z,70240.19
2022-10-12T18:06:48.070Z,70228.50
2022-10-12T18:09:15.656Z,70230.88
2022-10-12T18:11:44.218Z,70217.38
2022-10-12T18:14:13.191Z,70214.78
2022-10-12T18:16:41.271Z,70197.72
2022-10-12T18:19:11.588Z,70214.28
2022-10-12T18:21:39.573Z,70189.00
2022-10-12T18:24:16.108Z,70220.28
2022-10-12T18:26:45.797Z,70233.53
2022-10-12T18:29:16.174Z,70179.13
2022-10-12T18:31:43.151Z,70161.28
2022-10-12T18:34:10.537Z,70179.78
2022-10-12T18:36:39.540Z,70168.59
2022-10-12T18:39:06.540Z,70158.31
2022-10-12T18:41:33.528Z,70209.59
2022-10-12T18:44:02.450Z,70162.22
2022-10-12T18:46:33.017Z,70122.81
2022-10-12T18:49:04.961Z,70146.97
2022-10-12T18:51:35.974Z,70135.81
2022-10-12T18:54:04.285Z,70163.22
2022-10-12T18:56:33.620Z,70122.97
2022-10-12T18:59:02.338Z,70109.19
2022-10-12T19:01:30.775Z,70150.06
2022-10-12T19:04:00.636Z,70122.13
2022-10-12T19:06:31.677Z,70158.31
2022-10-12T19:09:01.350Z,70106.59
2022-10-12T19:11:30.976Z,70096.03
2022-10-12T19:14:08.020Z,70110.25
2022-10-12T19:16:35.707Z,70100.84
2022-10-12T19:19:07.254Z,70072.34
2022-10-12T19:21:35.004Z,70056.31
2022-10-12T19:24:04.345Z,70053.91
2022-10-12T19:26:31.814Z,70045.75
2022-10-12T19:28:58.832Z,70051.06
2022-10-12T19:31:36.225Z,70066.94
2022-10-12T19:34:08.127Z,70054.59
2022-10-12T19:36:36.979Z,69964.56
2022-10-12T19:39:12.051Z,70064.06
2022-10-12T19:41:39.975Z,70039.44
2022-10-12T19:44:07.094Z,70035.66
2022-10-12T19:46:35.051Z,70036.00
2022-10-12T19:49:01.987Z,70021.94
2022-10-12T19:51:31.876Z,70006.97
2022-10-12T19:54:04.847Z,70037.25
2022-10-12T19:56:33.856Z,70006.41
2022-10-12T19:59:00.843Z,69971.22
2022-10-12T20:01:32.762Z,69977.75
2022-10-12T20:03:59.911Z,69921.94
2022-10-12T20:06:29.993Z,69954.09
2022-10-12T20:09:02.272Z,69905.63
2022-10-12T20:11:29.945Z,69954.84
2022-10-12T20:13:57.958Z,69962.78
2022-10-12T20:16:25.866Z,69948.03
2022-10-12T20:18:52.938Z,69938.38
2022-10-12T20:21:23.428Z,69926.63
2022-10-12T20:23:51.449Z,69947.75
2022-10-12T20:26:25.239Z,69953.34
2022-10-12T20:28:54.357Z,69929.00
2022-10-12T20:31:23.880Z,69948.41
2022-10-12T20:33:53.003Z,69908.53
2022-10-12T20:36:28.916Z,69932.63
2022-10-12T20:38:58.822Z,69951.38
2022-10-12T20:41:27.771Z,69950.50
2022-10-12T20:44:00.322Z,69909.16
2022-10-12T20:46:29.252Z,69950.81
2022-10-12T20:48:59.705Z,69910.31
2022-10-12T20:51:32.749Z,69901.63
2022-10-12T20:54:01.185Z,69918.94
2022-10-12T20:56:30.806Z,69870.09
2022-10-12T20:58:58.900Z,69854.84
2022-10-12T21:01:26.246Z,69892.63
2022-10-12T21:03:54.482Z,69878.38
2022-10-12T21:06:23.318Z,69847.22
2022-10-12T21:08:53.117Z,69866.03
2022-10-12T21:11:21.243Z,69899.72
2022-10-12T21:13:48.760Z,69851.41
2022-10-12T21:16:16.858Z,69846.75
2022-10-12T21:18:43.920Z,69853.75
2022-10-12T21:21:19.477Z,69819.19
2022-10-12T21:23:55.921Z,69851.47
2022-10-12T21:26:25.600Z,69838.28
2022-10-12T21:28:53.037Z,69832.47
2022-10-12T21:31:21.252Z,69847.19
2022-10-12T21:33:48.308Z,69818.44
2022-10-12T21:36:23.087Z,69803.50
2022-10-12T21:38:50.671Z,69834.00
2022-10-12T21:41:24.195Z,69802.09
2022-10-12T21:43:52.444Z,69826.97
2022-10-12T21:46:27.000Z,69839.31
2022-10-12T21:48:54.591Z,69812.38
2022-10-12T21:51:23.948Z,69794.84
2022-10-12T21:53:52.285Z,69799.56
2022-10-12T21:56:20.811Z,69775.53
2022-10-12T21:58:49.341Z,69812.16
2022-10-12T22:01:22.278Z,69821.53
2022-10-12T22:03:57.646Z,69791.78
2022-10-12T22:06:27.533Z,69778.28
2022-10-12T22:09:00.755Z,69771.13
2022-10-12T22:11:31.925Z,69778.00
2022-10-12T22:14:05.312Z,69794.41
2022-10-12T22:16:33.309Z,69764.56
2022-10-12T22:19:03.798Z,69823.44
2022-10-12T22:21:35.473Z,69769.91
2022-10-12T22:24:02.703Z,69764.38
2022-10-12T22:26:30.464Z,69738.66
2022-10-12T22:29:01.546Z,69750.09
2022-10-12T22:31:28.868Z,69742.47
2022-10-12T22:33:56.409Z,69731.41
2022-10-12T22:36:23.450Z,69734.28
2022-10-12T22:38:50.559Z,69727.13
2022-10-12T22:41:21.512Z,69752.50
2022-10-12T22:43:52.349Z,69753.09
2022-10-12T22:46:21.232Z,69732.09
2022-10-12T22:48:49.150Z,69719.41
2022-10-12T22:51:25.742Z,69703.94
2022-10-12T22:53:52.755Z,69733.50
2022-10-12T22:56:19.867Z,69732.41
2022-10-12T22:58:48.886Z,69718.88
2022-10-12T23:01:17.757Z,69778.81
2022-10-12T23:03:45.905Z,69732.28
2022-10-12T23:06:18.229Z,69696.94
2022-10-12T23:08:46.322Z,69729.38
2022-10-12T23:11:25.595Z,69716.19
2022-10-12T23:13:54.388Z,69730.50
2022-10-12T23:16:28.922Z,69737.81
2022-10-12T23:19:01.954Z,69734.09
2022-10-12T23:21:30.673Z,69741.09
2022-10-12T23:24:00.183Z,69729.06
2022-10-12T23:26:29.282Z,69754.81
2022-10-12T23:28:56.772Z,69714.56
2022-10-12T23:31:29.128Z,69748.38
2022-10-12T23:34:04.254Z,69712.44
2022-10-12T23:36:31.976Z,69726.75
2022-10-12T23:39:04.521Z,69731.72
2022-10-12T23:41:31.562Z,69703.31
2022-10-12T23:43:59.046Z,69720.09
2022-10-12T23:46:26.943Z,69728.53
2022-10-12T23:48:56.545Z,69679.63
2022-10-12T23:51:23.520Z,69750.13
2022-10-12T23:53:50.908Z,69750.41
2022-10-12T23:56:17.917Z,69758.34
2022-10-12T23:58:44.867Z,69751.28
